Time;durP1;ratioP1;P1;durP2;ratioP2;P2;SDS_P1;SDS_P2;PMS_P1;PMS_P2;Temp;Humidity;BMP_temperature;BMP_pressure;BME280_temperature;BME280_humidity;BME280_pressure;Samples;Min_cycle;Max_cycle;Signal;HPM_P1;HPM_P2
2022/05/23 00:00:24;;;;;;;;;;;;;;;17.25;100.00;98011.22;5084811;28;19924;-77
2022/05/23 00:02:52;;;;;;;;;;;;;;;17.21;100.00;98010.63;5083518;28;19925;-77
2022/05/23 00:05:19;;;;;;;;;;;;;;;17.14;100.00;98008.25;5075047;28;19928;-77
2022/05/23 00:07:54;;;;;;;;;;;;;;;17.36;100.00;98002.88;5091062;28;20020;-77
2022/05/23 00:10:22;;;;;;;;;;;;;;;17.37;100.00;97998.78;5128130;27;19931;-77
2022/05/23 00:12:51;;;;;;;;;;;;;;;17.19;100.00;97996.25;5077737;28;20019;-78
2022/05/23 00:15:20;;;;;;;;;;;;;;;16.90;100.00;97991.50;5075376;28;19928;-77
2022/05/23 00:17:47;;;;;;;;;;;;;;;16.90;100.00;97993.53;5076516;28;19924;-77
2022/05/23 00:20:15;;;;;;;;;;;;;;;16.99;100.00;97999.03;5059301;28;19925;-77
2022/05/23 00:22:42;;;;;;;;;;;;;;;17.19;100.00;98002.66;5055108;28;19925;-77
2022/05/23 00:25:10;;;;;;;;;;;;;;;17.19;100.00;98005.47;5060498;28;19974;-77
2022/05/23 00:27:39;;;;;;;;;;;;;;;17.22;100.00;97992.44;5076218;28;19931;-77
2022/05/23 00:30:12;;;;;;;;;;;;;;;17.09;100.00;97989.16;5076239;28;19925;-77
2022/05/23 00:35:25;;;;;;;;;;;;;;;16.76;100.00;97980.25;5074501;28;19964;-77
2022/05/23 00:37:55;;;;;;;;;;;;;;;16.79;100.00;97976.44;5056163;28;19951;-77
2022/05/23 00:40:42;;;;;;;;;;;;;;;16.94;100.00;97982.81;5058027;28;19924;-77
2022/05/23 00:43:13;;;;;;;;;;;;;;;17.21;100.00;97971.91;5074447;28;19990;-77
2022/05/23 00:45:51;;;;;;;;;;;;;;;17.23;100.00;97960.91;5074773;28;19928;-77
2022/05/23 00:48:20;;;;;;;;;;;;;;;17.10;100.00;97962.53;5074790;28;19963;-77
2022/05/23 00:50:49;;;;;;;;;;;;;;;17.23;100.00;97965.75;5074745;28;20002;-77
2022/05/23 00:53:22;;;;;;;;;;;;;;;17.28;100.00;97962.25;5066619;28;19925;-78
2022/05/23 00:55:50;;;;;;;;;;;;;;;17.32;100.00;97957.94;5054612;28;19979;-77
2022/05/23 00:58:20;;;;;;;;;;;;;;;17.09;100.00;97958.13;5055655;28;19931;-77
2022/05/23 01:00:48;;;;;;;;;;;;;;;17.15;100.00;97953.34;5087875;28;20016;-78
2022/05/23 01:03:16;;;;;;;;;;;;;;;17.14;100.00;97952.56;5070679;28;19991;-77
2022/05/23 01:06:09;;;;;;;;;;;;;;;17.05;100.00;97949.09;5055412;28;20398;-77
2022/05/23 01:08:39;;;;;;;;;;;;;;;16.98;100.00;97944.66;5055615;28;19995;-78
2022/05/23 01:11:07;;;;;;;;;;;;;;;16.69;100.00;97941.19;5055947;28;19924;-77
2022/05/23 01:13:35;;;;;;;;;;;;;;;17.06;100.00;97939.38;5071233;28;19951;-77
2022/05/23 01:16:02;;;;;;;;;;;;;;;16.74;100.00;97943.28;5073941;28;20321;-78
2022/05/23 01:18:34;;;;;;;;;;;;;;;16.67;100.00;97950.13;5074192;28;20364;-77
2022/05/23 01:21:02;;;;;;;;;;;;;;;16.64;100.00;97942.66;5056967;28;19938;-77
2022/05/23 01:23:35;;;;;;;;;;;;;;;16.71;100.00;97942.22;5087594;28;19951;-77
2022/05/23 01:26:31;;;;;;;;;;;;;;;16.42;100.00;97935.88;5056584;28;20446;-77
2022/05/23 01:28:59;;;;;;;;;;;;;;;16.40;100.00;97939.19;5087299;28;20371;-77
2022/05/23 01:31:43;;;;;;;;;;;;;;;16.39;100.00;97936.84;5080862;28;19924;-77
2022/05/23 01:34:26;;;;;;;;;;;;;;;16.49;100.00;97941.13;5053859;28;20284;-78
2022/05/23 01:37:00;;;;;;;;;;;;;;;16.39;100.00;97943.25;5087375;28;19932;-78
2022/05/23 01:39:34;;;;;;;;;;;;;;;16.48;100.00;97945.22;5055076;28;19925;-79
2022/05/23 01:42:01;;;;;;;;;;;;;;;16.32;100.00;97929.56;5087444;28;19932;-79
2022/05/23 01:44:29;;;;;;;;;;;;;;;16.35;100.00;97930.63;5053924;28;20279;-79
2022/05/23 01:47:12;;;;;;;;;;;;;;;16.39;100.00;97931.22;5087102;28;19931;-79
2022/05/23 01:50:20;;;;;;;;;;;;;;;16.30;100.00;97934.16;5065277;28;19963;-79
2022/05/23 01:52:51;;;;;;;;;;;;;;;16.54;100.00;97921.47;5073677;28;20288;-79
2022/05/23 01:55:21;;;;;;;;;;;;;;;16.76;100.00;97921.81;5107269;28;20001;-79
2022/05/23 01:58:04;;;;;;;;;;;;;;;16.79;100.00;97914.38;5059121;28;19932;-79
2022/05/23 02:03:21;;;;;;;;;;;;;;;16.52;100.00;97918.38;5054524;28;19925;-78
2022/05/23 02:05:53;;;;;;;;;;;;;;;16.35;100.00;97916.53;5107104;28;19924;-78
2022/05/23 02:08:20;;;;;;;;;;;;;;;16.36;100.00;97904.78;5107015;28;19928;-78
2022/05/23 02:10:47;;;;;;;;;;;;;;;16.60;100.00;97904.66;5054307;28;19929;-78
2022/05/23 02:13:23;;;;;;;;;;;;;;;16.58;100.00;97893.88;5052511;28;19925;-78
2022/05/23 02:15:50;;;;;;;;;;;;;;;16.51;100.00;97893.50;5052801;28;20403;-78
2022/05/23 02:18:34;;;;;;;;;;;;;;;15.97;100.00;97889.28;5063075;28;19924;-78
2022/05/23 02:21:01;;;;;;;;;;;;;;;15.88;100.00;97887.38;5076528;28;20291;-78
2022/05/23 02:23:29;;;;;;;;;;;;;;;15.85;100.00;97888.34;5063577;28;20405;-78
2022/05/23 02:25:56;;;;;;;;;;;;;;;16.09;100.00;97896.66;5086713;28;19925;-78
2022/05/23 02:28:47;;;;;;;;;;;;;;;15.71;100.00;97883.50;5065618;28;19925;-78
2022/05/23 02:31:23;;;;;;;;;;;;;;;15.47;100.00;97877.19;5093205;28;19924;-78
2022/05/23 02:34:00;;;;;;;;;;;;;;;15.39;100.00;97878.81;5076433;28;19935;-78
2022/05/23 02:36:43;;;;;;;;;;;;;;;15.41;100.00;97875.53;5087781;28;20034;-78
2022/05/23 02:39:13;;;;;;;;;;;;;;;15.42;100.00;97875.03;5106493;28;19967;-77
2022/05/23 02:41:44;;;;;;;;;;;;;;;15.08;100.00;97874.88;5106345;28;19932;-78
2022/05/23 02:44:14;;;;;;;;;;;;;;;15.27;100.00;97879.06;5106480;28;20028;-77
2022/05/23 02:46:42;;;;;;;;;;;;;;;15.22;100.00;97869.25;5090266;28;19924;-78
2022/05/23 02:49:14;;;;;;;;;;;;;;;15.14;100.00;97868.09;5093218;28;19924;-78
2022/05/23 02:51:44;;;;;;;;;;;;;;;15.08;100.00;97870.03;5081107;28;19986;-78
2022/05/23 02:54:12;;;;;;;;;;;;;;;14.87;100.00;97871.13;5086078;28;20021;-78
2022/05/23 02:56:41;;;;;;;;;;;;;;;15.30;100.00;97870.44;5052637;28;19960;-78
2022/05/23 02:59:08;;;;;;;;;;;;;;;15.28;100.00;97860.94;5052570;28;20261;-78
2022/05/23 03:03:01;;;;;;;;;;;;;;;15.46;100.00;97861.56;5056826;28;19935;-78
2022/05/23 03:04:32;;;;;;;;;;;;;;;15.34;100.00;97859.75;5072588;28;20280;-78
2022/05/23 03:06:59;;;;;;;;;;;;;;;15.29;100.00;97854.81;5088074;28;19928;-78
2022/05/23 03:09:31;;;;;;;;;;;;;;;14.87;100.00;97854.28;5072785;28;19951;-78
2022/05/23 03:11:59;;;;;;;;;;;;;;;14.82;100.00;97857.72;5088257;28;20287;-78
2022/05/23 03:14:28;;;;;;;;;;;;;;;14.85;100.00;97850.38;5072648;28;20005;-77
2022/05/23 03:17:03;;;;;;;;;;;;;;;15.04;100.00;97852.53;5106338;28;19924;-78
2022/05/23 03:19:37;;;;;;;;;;;;;;;15.00;100.00;97846.34;5106372;28;19925;-78
2022/05/23 03:27:39;;;;;;;;;;;;;;;14.78;100.00;97834.66;5076339;28;20363;-78
2022/05/23 03:30:15;;;;;;;;;;;;;;;14.74;100.00;97822.81;5076458;28;19932;-78
2022/05/23 03:32:54;;;;;;;;;;;;;;;14.71;100.00;97826.56;5073184;28;20383;-78
2022/05/23 03:35:21;;;;;;;;;;;;;;;14.41;100.00;97830.53;5092657;28;20364;-78
2022/05/23 03:37:48;;;;;;;;;;;;;;;14.51;100.00;97825.66;5093243;28;20454;-78
2022/05/23 03:40:16;;;;;;;;;;;;;;;14.80;100.00;97820.13;5076261;28;19931;-78
2022/05/23 03:42:49;;;;;;;;;;;;;;;14.87;100.00;97809.28;5094264;28;20355;-78
2022/05/23 03:45:17;;;;;;;;;;;;;;;14.86;100.00;97815.38;5079684;28;19924;-78
2022/05/23 03:47:48;;;;;;;;;;;;;;;14.96;100.00;97805.59;5096307;28;20014;-77
2022/05/23 03:50:17;;;;;;;;;;;;;;;14.86;100.00;97816.13;5096251;28;19924;-78
2022/05/23 03:52:44;;;;;;;;;;;;;;;14.74;100.00;97817.19;5077494;28;19931;-78
2022/05/23 03:55:22;;;;;;;;;;;;;;;14.78;100.00;97811.38;5075779;28;19974;-78
2022/05/23 03:57:56;;;;;;;;;;;;;;;14.72;100.00;97814.09;5092847;28;20469;-78
2022/05/23 04:00:24;;;;;;;;;;;;;;;13.97;100.00;97810.66;5109525;28;20413;-78
2022/05/23 04:02:55;;;;;;;;;;;;;;;14.27;100.00;97817.19;5058046;28;19932;-78
2022/05/23 04:05:22;;;;;;;;;;;;;;;14.65;100.00;97808.81;5072401;28;19978;-78
2022/05/23 04:08:09;;;;;;;;;;;;;;;14.68;100.00;97799.41;5076900;28;19929;-78
2022/05/23 04:10:44;;;;;;;;;;;;;;;14.71;100.00;97795.66;5058713;28;19963;-78
2022/05/23 04:13:13;;;;;;;;;;;;;;;14.33;100.00;97804.06;5055562;28;19968;-78
2022/05/23 04:15:41;;;;;;;;;;;;;;;14.46;100.00;97807.41;5055388;28;19931;-78
2022/05/23 04:18:10;;;;;;;;;;;;;;;14.25;100.00;97800.06;5072222;28;20426;-78
2022/05/23 04:20:38;;;;;;;;;;;;;;;14.04;100.00;97798.28;5055485;28;19932;-78
2022/05/23 04:23:31;;;;;;;;;;;;;;;14.02;100.00;97795.97;5082395;28;19931;-78
2022/05/23 04:26:03;;;;;;;;;;;;;;;13.95;100.00;97796.28;5088660;28;19929;-78
2022/05/23 04:28:30;;;;;;;;;;;;;;;14.39;100.00;97802.13;5055411;28;20020;-78
2022/05/23 04:30:57;;;;;;;;;;;;;;;14.25;100.00;97803.63;5056345;28;19928;-78
2022/05/23 04:36:20;;;;;;;;;;;;;;;14.31;100.00;97784.09;5074454;28;19936;-78
2022/05/23 04:38:49;;;;;;;;;;;;;;;14.50;100.00;97782.69;5075166;28;19949;-78
2022/05/23 04:41:17;;;;;;;;;;;;;;;14.61;100.00;97768.09;5091219;28;20410;-78
2022/05/23 04:43:51;;;;;;;;;;;;;;;13.51;100.00;97777.66;5074982;28;19942;-77
2022/05/23 04:46:26;;;;;;;;;;;;;;;13.91;100.00;97778.06;5091743;28;19935;-77
2022/05/23 04:51:59;;;;;;;;;;;;;;;14.17;100.00;97785.56;5074934;28;19951;-77
2022/05/23 04:54:34;;;;;;;;;;;;;;;14.21;100.00;97788.97;5108260;28;19963;-78
2022/05/23 04:57:02;;;;;;;;;;;;;;;13.72;100.00;97777.38;5108436;28;20013;-77
2022/05/23 04:59:33;;;;;;;;;;;;;;;13.42;100.00;97783.31;5074455;28;20406;-78
2022/05/23 05:02:03;;;;;;;;;;;;;;;12.77;100.00;97781.84;5091423;28;19925;-77
2022/05/23 05:04:31;;;;;;;;;;;;;;;13.47;100.00;97785.44;5074199;28;19929;-78
2022/05/23 05:06:59;;;;;;;;;;;;;;;14.00;100.00;97780.81;5108330;28;19931;-78
2022/05/23 05:09:26;;;;;;;;;;;;;;;13.85;100.00;97779.97;5073706;28;20405;-78
2022/05/23 05:12:02;;;;;;;;;;;;;;;14.39;100.00;97782.47;5075693;28;20062;-78
2022/05/23 05:14:34;;;;;;;;;;;;;;;14.34;100.00;97769.09;5074452;28;19924;-78
2022/05/23 05:17:04;;;;;;;;;;;;;;;14.18;100.00;97766.66;5108031;28;19924;-78
2022/05/23 05:19:33;;;;;;;;;;;;;;;14.31;100.00;97765.19;5057557;28;19931;-78
2022/05/23 05:22:19;;;;;;;;;;;;;;;14.57;100.00;97773.91;5055739;28;19977;-78
2022/05/23 05:25:11;;;;;;;;;;;;;;;13.86;100.00;97767.47;5061968;28;20076;-77
2022/05/23 05:27:47;;;;;;;;;;;;;;;14.51;100.00;97763.81;5037558;28;19932;-78
2022/05/23 05:30:15;;;;;;;;;;;;;;;14.73;100.00;97759.41;5054023;28;19925;-78
2022/05/23 05:32:55;;;;;;;;;;;;;;;14.87;100.00;97760.69;5053736;28;19924;-78
2022/05/23 05:35:28;;;;;;;;;;;;;;;14.88;100.00;97760.19;5073161;28;19978;-78
2022/05/23 05:38:04;;;;;;;;;;;;;;;14.93;100.00;97756.72;5075204;28;20295;-77
2022/05/23 05:40:34;;;;;;;;;;;;;;;14.92;100.00;97768.47;5106878;28;19924;-78
2022/05/23 05:43:05;;;;;;;;;;;;;;;15.18;100.00;97767.38;5107519;28;20316;-78
2022/05/23 05:45:37;;;;;;;;;;;;;;;15.42;100.00;97764.50;5096273;28;19925;-77
2022/05/23 05:48:40;;;;;;;;;;;;;;;15.54;100.00;97760.63;5051567;28;19925;-77
2022/05/23 05:51:11;;;;;;;;;;;;;;;15.66;100.00;97754.66;5035881;28;19925;-77
2022/05/23 05:57:35;;;;;;;;;;;;;;;15.27;100.00;97758.06;5051511;28;19927;-77
2022/05/23 06:00:06;;;;;;;;;;;;;;;14.99;100.00;97754.00;5047081;28;19936;-76
2022/05/23 06:02:47;;;;;;;;;;;;;;;14.97;100.00;97751.66;5052023;28;19932;-77
2022/05/23 06:05:21;;;;;;;;;;;;;;;15.17;100.00;97745.38;5051740;28;20063;-77
2022/05/23 06:13:44;;;;;;;;;;;;;;;15.37;100.00;97760.31;5052485;28;19928;-76
2022/05/23 06:16:34;;;;;;;;;;;;;;;15.51;100.00;97751.09;5052151;28;19955;-83
2022/05/23 06:19:04;;;;;;;;;;;;;;;15.26;100.00;97756.53;5019582;28;20363;-80
2022/05/23 06:21:41;;;;;;;;;;;;;;;15.57;100.00;97748.38;5046900;28;19924;-83
2022/05/23 06:24:12;;;;;;;;;;;;;;;15.73;100.00;97753.47;5032286;28;19935;-81
2022/05/23 06:26:48;;;;;;;;;;;;;;;15.59;100.00;97732.53;5056794;28;19925;-81
2022/05/23 06:29:48;;;;;;;;;;;;;;;15.71;100.00;97731.44;5110329;28;19973;-82
2022/05/23 06:32:32;;;;;;;;;;;;;;;15.95;100.00;97723.59;5093460;28;19960;-82
2022/05/23 06:35:00;;;;;;;;;;;;;;;15.83;100.00;97716.25;5093187;28;19930;-82
2022/05/23 06:37:30;;;;;;;;;;;;;;;15.87;100.00;97721.69;5076296;28;19924;-82
2022/05/23 06:40:10;;;;;;;;;;;;;;;16.17;100.00;97723.91;5127166;27;19928;-81
2022/05/23 06:42:57;;;;;;;;;;;;;;;16.48;100.00;97719.69;5094190;28;19924;-81
2022/05/23 06:46:03;;;;;;;;;;;;;;;16.39;100.00;97723.38;5032232;28;19948;-81
2022/05/23 06:49:00;;;;;;;;;;;;;;;16.78;100.00;97721.06;5029388;28;20399;-82
2022/05/23 06:51:49;;;;;;;;;;;;;;;16.68;100.00;97711.97;5032172;28;20372;-81
2022/05/23 06:54:20;;;;;;;;;;;;;;;16.49;100.00;97716.38;5031538;28;20339;-81
2022/05/23 06:57:02;;;;;;;;;;;;;;;16.68;100.00;97702.72;5031646;28;19932;-79
2022/05/23 06:59:30;;;;;;;;;;;;;;;16.61;100.00;97694.72;5020242;28;19960;-79
2022/05/23 07:01:58;;;;;;;;;;;;;;;16.17;100.00;97704.19;5012390;28;19925;-80
2022/05/23 07:13:16;;;;;;;;;;;;;;;15.87;100.00;97708.38;4992477;28;20004;-80
2022/05/23 07:15:47;;;;;;;;;;;;;;;16.46;100.00;97699.66;4994294;28;19926;-80
2022/05/23 07:18:16;;;;;;;;;;;;;;;16.74;100.00;97697.91;5036289;28;19940;-80
2022/05/23 07:20:46;;;;;;;;;;;;;;;17.14;100.00;97703.44;5086004;28;19932;-80
2022/05/23 07:23:27;;;;;;;;;;;;;;;17.35;100.00;97680.28;5054533;28;19982;-80
2022/05/23 07:26:06;;;;;;;;;;;;;;;16.63;100.00;97672.44;5086031;28;19979;-80
2022/05/23 07:28:46;;;;;;;;;;;;;;;16.82;100.00;97682.09;5085954;28;19932;-83
2022/05/23 07:31:16;;;;;;;;;;;;;;;16.77;100.00;97686.41;5035782;28;20272;-80
2022/05/23 07:33:44;;;;;;;;;;;;;;;16.86;100.00;97685.47;5085632;28;20051;-80
2022/05/23 07:36:18;;;;;;;;;;;;;;;16.64;100.00;97691.69;5053604;28;19925;-80
2022/05/23 07:38:46;;;;;;;;;;;;;;;16.70;100.00;97688.91;5052515;28;19971;-80
2022/05/23 07:41:36;;;;;;;;;;;;;;;16.27;100.00;97681.50;5053625;28;19924;-79
2022/05/23 07:44:04;;;;;;;;;;;;;;;16.54;100.00;97669.78;5052217;28;19932;-80
2022/05/23 07:46:32;;;;;;;;;;;;;;;16.75;100.00;97674.09;5052147;28;20332;-79
2022/05/23 07:49:00;;;;;;;;;;;;;;;16.89;100.00;97664.75;5052075;28;19928;-80
2022/05/23 07:51:32;;;;;;;;;;;;;;;17.24;100.00;97673.75;5052278;28;19979;-79
2022/05/23 08:03:01;;;;;;;;;;;;;;;16.97;100.00;97666.63;5031068;28;20420;-79
2022/05/23 08:05:30;;;;;;;;;;;;;;;16.80;100.00;97662.06;5015022;28;19967;-79
2022/05/23 08:07:57;;;;;;;;;;;;;;;16.92;100.00;97663.75;5030606;28;19955;-79
2022/05/23 08:10:25;;;;;;;;;;;;;;;16.81;100.00;97661.56;5014718;28;19971;-79
2022/05/23 08:12:54;;;;;;;;;;;;;;;16.69;100.00;97647.88;5053713;28;19931;-79
2022/05/23 08:15:24;;;;;;;;;;;;;;;16.71;100.00;97657.38;5071559;28;20007;-79
2022/05/23 08:17:58;;;;;;;;;;;;;;;17.22;100.00;97656.56;5054445;28;20538;-80
2022/05/23 08:20:31;;;;;;;;;;;;;;;17.49;100.00;97645.47;5070856;28;19959;-80
2022/05/23 08:22:59;;;;;;;;;;;;;;;17.17;100.00;97651.66;5055051;28;19925;-81
2022/05/23 08:25:33;;;;;;;;;;;;;;;16.82;100.00;97654.69;5039004;28;20339;-82
2022/05/23 08:28:01;;;;;;;;;;;;;;;16.93;100.00;97651.97;5054357;28;20441;-80
2022/05/23 08:30:28;;;;;;;;;;;;;;;17.04;100.00;97659.75;5034781;28;20438;-80
2022/05/23 08:33:05;;;;;;;;;;;;;;;17.02;100.00;97645.38;5050980;28;20389;-83
2022/05/23 08:35:33;;;;;;;;;;;;;;;17.23;100.00;97646.81;5035296;28;20356;-80
2022/05/23 08:38:01;;;;;;;;;;;;;;;17.56;100.00;97639.38;5052139;28;20621;-78
2022/05/23 08:40:54;;;;;;;;;;;;;;;18.03;100.00;97649.13;5053138;28;19924;-77
2022/05/23 08:43:26;;;;;;;;;;;;;;;18.11;100.00;97640.94;5069260;28;19924;-79
2022/05/23 08:45:56;;;;;;;;;;;;;;;17.65;100.00;97635.56;5084201;28;19935;-79
2022/05/23 08:48:35;;;;;;;;;;;;;;;17.51;100.00;97644.97;5075124;28;20383;-79
2022/05/23 08:51:11;;;;;;;;;;;;;;;17.35;100.00;97651.25;5071256;28;20364;-80
2022/05/23 08:54:01;;;;;;;;;;;;;;;17.52;100.00;97638.81;5089044;28;19936;-79
2022/05/23 08:56:57;;;;;;;;;;;;;;;18.37;100.00;97631.06;5053874;28;20376;-79
2022/05/23 08:59:32;;;;;;;;;;;;;;;18.60;100.00;97629.81;5054960;28;19925;-79
2022/05/23 09:02:01;;;;;;;;;;;;;;;19.69;100.00;97622.59;5073466;28;20268;-79
2022/05/23 09:04:37;;;;;;;;;;;;;;;19.23;100.00;97611.06;5071465;28;19931;-78
2022/05/23 09:07:06;;;;;;;;;;;;;;;19.78;100.00;97621.53;5087636;28;19966;-78
2022/05/23 09:09:36;;;;;;;;;;;;;;;19.51;100.00;97611.81;5077804;28;19932;-78
2022/05/23 09:12:11;;;;;;;;;;;;;;;19.67;100.00;97602.50;5066879;28;19925;-79
2022/05/23 09:14:44;;;;;;;;;;;;;;;19.80;100.00;97609.66;5075162;28;19928;-78
2022/05/23 09:17:20;;;;;;;;;;;;;;;20.37;100.00;97601.22;5059261;28;20020;-79
2022/05/23 09:20:05;;;;;;;;;;;;;;;20.11;100.00;97595.13;5086719;28;19924;-79
2022/05/23 09:22:43;;;;;;;;;;;;;;;20.41;100.00;97587.53;5065949;28;20340;-79
2022/05/23 09:25:12;;;;;;;;;;;;;;;20.44;100.00;97580.81;5068953;28;19932;-77
2022/05/23 09:27:41;;;;;;;;;;;;;;;19.26;100.00;97584.56;5057589;28;19925;-83
2022/05/23 09:30:11;;;;;;;;;;;;;;;19.11;100.00;97584.06;5086965;28;20470;-80
2022/05/23 09:32:40;;;;;;;;;;;;;;;19.21;100.00;97593.81;5069954;28;19925;-80
2022/05/23 09:35:17;;;;;;;;;;;;;;;18.94;100.00;97591.78;5074601;28;20380;-81
2022/05/23 09:38:09;;;;;;;;;;;;;;;18.49;100.00;97593.03;5042774;28;19930;-81
2022/05/23 09:40:49;;;;;;;;;;;;;;;18.53;100.00;97590.72;5075118;28;19930;-81
2022/05/23 09:49:03;;;;;;;;;;;;;;;19.33;100.00;97574.78;5083772;28;19924;-83
2022/05/23 09:51:30;;;;;;;;;;;;;;;18.62;100.00;97573.50;5086264;28;19974;-84
2022/05/23 09:54:02;;;;;;;;;;;;;;;18.85;100.00;97571.44;5057207;28;20305;-86
2022/05/23 09:56:29;;;;;;;;;;;;;;;18.98;100.00;97561.16;5090623;28;19931;-84
2022/05/23 09:59:00;;;;;;;;;;;;;;;18.52;100.00;97568.59;5056840;28;19966;-83
2022/05/23 10:01:37;;;;;;;;;;;;;;;18.94;100.00;97560.66;5088942;28;20006;-84
2022/05/23 10:04:13;;;;;;;;;;;;;;;18.74;100.00;97560.91;5089999;28;20077;-84
2022/05/23 10:06:48;;;;;;;;;;;;;;;18.62;100.00;97553.69;5089972;28;19928;-83
2022/05/23 10:09:30;;;;;;;;;;;;;;;18.74;100.00;97554.47;5106653;28;19924;-83
2022/05/23 10:12:20;;;;;;;;;;;;;;;18.51;100.00;97542.38;5070648;28;19924;-83
2022/05/23 10:14:49;;;;;;;;;;;;;;;18.47;100.00;97541.06;5073166;28;19924;-83
2022/05/23 10:17:24;;;;;;;;;;;;;;;19.09;100.00;97534.91;5073357;28;19931;-83
2022/05/23 10:19:51;;;;;;;;;;;;;;;19.86;100.00;97533.94;5074694;28;19924;-83
2022/05/23 10:22:22;;;;;;;;;;;;;;;19.86;100.00;97519.75;5073249;28;19929;-84
2022/05/23 10:24:59;;;;;;;;;;;;;;;19.84;100.00;97523.13;5074256;28;20563;-83
2022/05/23 10:27:36;;;;;;;;;;;;;;;19.57;100.00;97533.25;5106622;28;20001;-83
2022/05/23 10:30:05;;;;;;;;;;;;;;;19.45;100.00;97539.47;5057007;28;20031;-83
2022/05/23 10:33:02;;;;;;;;;;;;;;;19.68;100.00;97533.22;5073372;28;19924;-83
2022/05/23 10:35:40;;;;;;;;;;;;;;;19.52;100.00;97527.63;5051912;28;20021;-83
2022/05/23 10:44:16;;;;;;;;;;;;;;;19.11;100.00;97516.13;5073224;28;19957;-83
2022/05/23 10:46:46;;;;;;;;;;;;;;;19.11;100.00;97516.13;5073014;28;20347;-83
2022/05/23 10:49:40;;;;;;;;;;;;;;;18.65;100.00;97518.72;5104243;28;19924;-83
2022/05/23 10:52:15;;;;;;;;;;;;;;;18.58;100.00;97524.91;5072719;28;19924;-82
2022/05/23 10:54:45;;;;;;;;;;;;;;;18.62;100.00;97527.47;5074039;28;19962;-83
2022/05/23 10:57:12;;;;;;;;;;;;;;;17.83;100.00;97522.94;5072864;28;19936;-84
2022/05/23 10:59:54;;;;;;;;;;;;;;;17.66;100.00;97529.81;5073714;28;19924;-82
2022/05/23 11:02:40;;;;;;;;;;;;;;;18.10;100.00;97523.53;5074222;28;19931;-81
2022/05/23 11:05:17;;;;;;;;;;;;;;;18.11;100.00;97520.19;5072350;28;20010;-82
2022/05/23 11:07:45;;;;;;;;;;;;;;;18.30;100.00;97517.63;5106009;28;19924;-81
2022/05/23 11:10:22;;;;;;;;;;;;;;;18.57;100.00;97512.03;5105336;28;19925;-82
2022/05/23 11:13:24;;;;;;;;;;;;;;;19.07;100.00;97514.81;5089812;28;19924;-81
2022/05/23 11:16:11;;;;;;;;;;;;;;;19.14;100.00;97508.66;5040374;28;19928;-83
2022/05/23 11:18:57;;;;;;;;;;;;;;;19.62;100.00;97504.16;5073101;28;19931;-82
2022/05/23 11:21:31;;;;;;;;;;;;;;;18.76;100.00;97501.75;5056523;28;20027;-83
2022/05/23 11:24:04;;;;;;;;;;;;;;;18.87;100.00;97507.38;5073646;28;19951;-83
2022/05/23 11:26:52;;;;;;;;;;;;;;;19.07;100.00;97512.00;5072475;28;19925;-82
2022/05/23 11:35:01;;;;;;;;;;;;;;;18.68;100.00;97500.72;5092472;28;19970;-80
2022/05/23 11:37:49;;;;;;;;;;;;;;;19.05;100.00;97506.84;5052807;28;19983;-80
2022/05/23 11:40:25;;;;;;;;;;;;;;;19.28;100.00;97504.78;5053518;28;20015;-81
2022/05/23 11:43:01;;;;;;;;;;;;;;;18.89;100.00;97493.50;5069165;28;19982;-80
2022/05/23 11:48:34;;;;;;;;;;;;;;;17.86;100.00;97498.53;5065567;28;20048;-81
2022/05/23 11:51:27;;;;;;;;;;;;;;;18.01;100.00;97504.72;5092907;28;19931;-83
2022/05/23 11:54:00;;;;;;;;;;;;;;;18.15;100.00;97503.75;5058584;28;19960;-83
2022/05/23 11:56:33;;;;;;;;;;;;;;;18.02;100.00;97507.06;5091997;28;19924;-84
2022/05/23 11:59:02;;;;;;;;;;;;;;;17.88;100.00;97507.28;5096269;28;20065;-83
2022/05/23 12:01:30;;;;;;;;;;;;;;;17.99;100.00;97508.06;5096668;28;19924;-81
2022/05/23 12:03:58;;;;;;;;;;;;;;;17.96;100.00;97497.78;5080813;28;19924;-91
2022/05/23 12:06:25;;;;;;;;;;;;;;;17.89;100.00;97506.00;5087606;28;19969;-84
2022/05/23 12:09:02;;;;;;;;;;;;;;;17.99;100.00;97504.50;5055635;28;19935;-81
2022/05/23 12:11:31;;;;;;;;;;;;;;;18.27;100.00;97510.94;5070099;28;20387;-82
2022/05/23 12:14:13;;;;;;;;;;;;;;;18.44;100.00;97508.16;5074270;28;19937;-81
2022/05/23 12:16:42;;;;;;;;;;;;;;;18.32;100.00;97507.38;5075406;28;19924;-84
2022/05/23 12:19:28;;;;;;;;;;;;;;;18.15;100.00;97505.78;5055212;28;20456;-82
2022/05/23 12:22:14;;;;;;;;;;;;;;;18.13;100.00;97505.53;5046232;28;19932;-83
2022/05/23 12:25:00;;;;;;;;;;;;;;;18.14;100.00;97507.88;5029154;28;19931;-83
2022/05/23 12:27:33;;;;;;;;;;;;;;;17.73;100.00;97506.72;5060625;28;19966;-84
2022/05/23 12:30:26;;;;;;;;;;;;;;;17.89;100.00;97503.16;5058260;28;19928;-84
2022/05/23 12:33:04;;;;;;;;;;;;;;;18.15;100.00;97506.56;5074727;28;19951;-84
2022/05/23 12:35:40;;;;;;;;;;;;;;;18.42;100.00;97507.94;5066334;28;19948;-85
2022/05/23 12:38:33;;;;;;;;;;;;;;;18.39;100.00;97501.22;5055347;28;19931;-84
2022/05/23 12:45:15;;;;;;;;;;;;;;;18.28;100.00;97495.53;5056151;28;19923;-82
2022/05/23 12:47:51;;;;;;;;;;;;;;;17.54;100.00;97494.31;5084586;28;19932;-84
2022/05/23 12:50:26;;;;;;;;;;;;;;;17.75;100.00;97487.97;5083701;28;20384;-82
2022/05/23 12:52:59;;;;;;;;;;;;;;;17.96;100.00;97494.22;5085014;28;19928;-83
2022/05/23 12:55:29;;;;;;;;;;;;;;;18.02;100.00;97492.16;5089336;28;20333;-84
2022/05/23 12:58:02;;;;;;;;;;;;;;;17.47;100.00;97506.09;5074456;28;19924;-84
2022/05/23 13:00:59;;;;;;;;;;;;;;;17.30;100.00;97499.56;5076941;28;19924;-84
2022/05/23 13:03:26;;;;;;;;;;;;;;;17.24;100.00;97505.19;5071315;28;19931;-84
2022/05/23 13:06:32;;;;;;;;;;;;;;;17.45;100.00;97508.66;5040767;28;20326;-85
2022/05/23 13:09:02;;;;;;;;;;;;;;;17.20;100.00;97515.19;5017684;28;19925;-84
2022/05/23 13:11:44;;;;;;;;;;;;;;;17.21;100.00;97511.84;5017857;28;20407;-84
2022/05/23 13:14:11;;;;;;;;;;;;;;;16.97;100.00;97513.50;5001212;28;19963;-84
2022/05/23 13:16:50;;;;;;;;;;;;;;;16.86;100.00;97513.41;5019258;28;20015;-80
2022/05/23 13:22:12;;;;;;;;;;;;;;;17.26;100.00;97494.19;5033777;28;19947;-82
2022/05/23 13:24:54;;;;;;;;;;;;;;;17.01;100.00;97502.75;5033566;28;19925;-79
2022/05/23 13:27:30;;;;;;;;;;;;;;;17.08;100.00;97491.78;5030482;28;20020;-80
2022/05/23 13:29:59;;;;;;;;;;;;;;;17.28;100.00;97499.31;5043845;28;20360;-80
2022/05/23 13:32:28;;;;;;;;;;;;;;;17.31;100.00;97498.31;5046646;28;19929;-80
2022/05/23 13:34:56;;;;;;;;;;;;;;;17.29;100.00;97493.16;5056164;28;20038;-81
2022/05/23 13:37:36;;;;;;;;;;;;;;;17.03;100.00;97497.38;5049724;28;19967;-80
2022/05/23 13:40:06;;;;;;;;;;;;;;;17.08;100.00;97502.28;5055007;28;20002;-81
2022/05/23 13:42:34;;;;;;;;;;;;;;;17.21;100.00;97488.50;5071688;28;19974;-85
2022/05/23 13:45:08;;;;;;;;;;;;;;;16.71;100.00;97495.88;5086820;28;19925;-78
2022/05/23 13:47:39;;;;;;;;;;;;;;;16.57;100.00;97491.91;5063679;28;20005;-79
2022/05/23 13:50:11;;;;;;;;;;;;;;;16.97;100.00;97485.28;5070493;28;20493;-79
2022/05/23 13:52:41;;;;;;;;;;;;;;;16.76;100.00;97481.03;5082043;28;19924;-78
2022/05/23 13:55:15;;;;;;;;;;;;;;;16.88;100.00;97474.19;5092752;28;19930;-79
2022/05/23 13:57:47;;;;;;;;;;;;;;;16.70;100.00;97483.84;5076228;28;19935;-78
2022/05/23 14:00:20;;;;;;;;;;;;;;;16.63;100.00;97481.47;5070791;28;19980;-82
2022/05/23 14:02:50;;;;;;;;;;;;;;;17.12;100.00;97477.41;5050676;28;20043;-82
2022/05/23 14:05:20;;;;;;;;;;;;;;;16.97;100.00;97479.63;5070315;28;20281;-79
2022/05/23 14:07:50;;;;;;;;;;;;;;;16.80;100.00;97487.22;5069813;28;19932;-80
2022/05/23 14:10:20;;;;;;;;;;;;;;;17.13;100.00;97482.53;5060870;28;19928;-80
2022/05/23 14:12:48;;;;;;;;;;;;;;;17.11;100.00;97475.88;5071231;28;20291;-79
2022/05/23 14:15:19;;;;;;;;;;;;;;;16.90;100.00;97483.72;5063974;28;19933;-80
2022/05/23 14:17:49;;;;;;;;;;;;;;;17.02;100.00;97481.72;5050347;28;20290;-79
2022/05/23 14:20:19;;;;;;;;;;;;;;;16.61;100.00;97480.41;5051191;28;19991;-81
2022/05/23 14:23:08;;;;;;;;;;;;;;;16.22;100.00;97483.66;5050227;28;19924;-81